09:36
Airports
History
Links
Donate
Help keep this website running!
PayPal
Bitcoin
This page is community maintained. The information is intended for PC simulator navigation or reference.
Always use approved charts for navigation.
EDH1
Neujellingsdorf
Neujellingsdorf (EDH1)
Fehmarn, Schleswig-Holstein, Germany (23769)
(C)
Lat/Lng:54° 27' 21.1" N / 11° 6' 34.11" E
54.455862 / 11.109474
Elevation:16'ft / 5mMSL
ID / ICAO:EDH1
Runways:1
Longest:11-29
Grass 612m / 2,006ft
Controlled:Yes
Nearby Weather13:23 GMT 2017-12-29
Nearby weather at EKMB, Lolland Falster Maribo located 21.4 nautical miles from EDH1
Altimeter: 29.83
Visibility: 5.0 statute miles
Wind: 17 knots (from 250°)
Temp: 7°c / 45°f
Humidity: 93.3%

METAR: EKMB 291323Z 25017KT 8000 -SN BKN008 07/06 Q1010

(Powered by phpweather)
Airport Radio Frequencies
Tower: 122.05
Nearby VORs <50NM
Nearby NDBs
Runway 11 / 29
Dimensions:611.5 x 29.9m 2006' x 98'ft
Surface:Grass
Runway 11 [A]Runway 29 [B]
Heading:105°TH 285°TH
Lat:
Lng:
54° 27' 23.74"N
11° 6' 17.46"E
54° 27' 18.47"N
11° 6' 50.75"E
User Notes and Comments
54° 27' 21.1" N / 11° 6' 34.11" E
Distance To
Airport ID:
Nearby Airports
(C) Grube 15.0 NM
EDHB SSW 193°
(C) Lolland Falster Maribo 21.4 NM
EKMB ( WX ) NE 38°
(C) Sierksdorf Hof Altona 30.7 NM
EDXT SSW 208°
4 Aeroe 37.9 NM
EKAE NW 316°
(C) Kiel Holtenau 39.1 NM
EDHK W 262°
4 Femoe Kro Flyveplads 40.3 NM
EK62 NNE 25°
4 Vejroe 40.5 NM
EK78 NNE 13°
VFR Chart
Flight Planning at SkyVector.com